sensor_id;sensor_type;location;lat;lon;timestamp;P1;durP1;ratioP1;P2;durP2;ratioP2
16401;SDS011;8310;44.626;11.176;2022-07-23T00:01:36;16.98;;;15.38;;
16401;SDS011;8310;44.626;11.176;2022-07-23T00:04:05;16.98;;;14.77;;
16401;SDS011;8310;44.626;11.176;2022-07-23T00:06:33;16.30;;;14.68;;
16401;SDS011;8310;44.626;11.176;2022-07-23T00:09:01;17.92;;;16.08;;
16401;SDS011;8310;44.626;11.176;2022-07-23T00:11:29;17.35;;;15.35;;
16401;SDS011;8310;44.626;11.176;2022-07-23T00:13:57;15.50;;;14.00;;
16401;SDS011;8310;44.626;11.176;2022-07-23T00:16:25;18.08;;;15.68;;
16401;SDS011;8310;44.626;11.176;2022-07-23T00:18:53;16.30;;;14.70;;
16401;SDS011;8310;44.626;11.176;2022-07-23T00:21:22;16.70;;;15.10;;
16401;SDS011;8310;44.626;11.176;2022-07-23T00:23:50;17.77;;;16.13;;
16401;SDS011;8310;44.626;11.176;2022-07-23T00:26:18;17.65;;;14.90;;
16401;SDS011;8310;44.626;11.176;2022-07-23T00:28:46;17.02;;;15.20;;
16401;SDS011;8310;44.626;11.176;2022-07-23T00:31:14;17.02;;;15.32;;
16401;SDS011;8310;44.626;11.176;2022-07-23T00:33:41;17.25;;;15.15;;
16401;SDS011;8310;44.626;11.176;2022-07-23T00:36:12;18.13;;;15.55;;
16401;SDS011;8310;44.626;11.176;2022-07-23T00:38:42;15.63;;;14.07;;
16401;SDS011;8310;44.626;11.176;2022-07-23T00:41:09;14.30;;;12.75;;
16401;SDS011;8310;44.626;11.176;2022-07-23T00:43:38;15.02;;;13.60;;
16401;SDS011;8310;44.626;11.176;2022-07-23T00:46:07;16.42;;;14.63;;
16401;SDS011;8310;44.626;11.176;2022-07-23T00:48:39;15.18;;;13.63;;
16401;SDS011;8310;44.626;11.176;2022-07-23T00:51:06;18.58;;;16.75;;
16401;SDS011;8310;44.626;11.176;2022-07-23T00:53:35;19.60;;;17.80;;
16401;SDS011;8310;44.626;11.176;2022-07-23T00:56:04;20.70;;;18.70;;
16401;SDS011;8310;44.626;11.176;2022-07-23T00:58:34;20.33;;;18.35;;
16401;SDS011;8310;44.626;11.176;2022-07-23T01:01:03;19.33;;;17.63;;
16401;SDS011;8310;44.626;11.176;2022-07-23T01:03:31;20.90;;;18.70;;
16401;SDS011;8310;44.626;11.176;2022-07-23T01:05:59;22.88;;;19.63;;
16401;SDS011;8310;44.626;11.176;2022-07-23T01:08:26;19.35;;;17.15;;
16401;SDS011;8310;44.626;11.176;2022-07-23T01:10:54;19.05;;;17.05;;
16401;SDS011;8310;44.626;11.176;2022-07-23T01:13:24;19.77;;;17.98;;
16401;SDS011;8310;44.626;11.176;2022-07-23T01:15:52;19.38;;;17.25;;
16401;SDS011;8310;44.626;11.176;2022-07-23T01:18:20;19.15;;;17.42;;
16401;SDS011;8310;44.626;11.176;2022-07-23T01:20:49;19.92;;;18.08;;
16401;SDS011;8310;44.626;11.176;2022-07-23T01:23:18;20.08;;;18.15;;
16401;SDS011;8310;44.626;11.176;2022-07-23T01:25:47;21.58;;;19.33;;
16401;SDS011;8310;44.626;11.176;2022-07-23T01:28:15;17.48;;;15.88;;
16401;SDS011;8310;44.626;11.176;2022-07-23T01:30:43;16.77;;;14.77;;
16401;SDS011;8310;44.626;11.176;2022-07-23T01:33:11;16.67;;;15.07;;
16401;SDS011;8310;44.626;11.176;2022-07-23T01:35:39;17.88;;;15.98;;
16401;SDS011;8310;44.626;11.176;2022-07-23T01:38:07;18.77;;;17.17;;
16401;SDS011;8310;44.626;11.176;2022-07-23T01:40:36;18.70;;;16.77;;
16401;SDS011;8310;44.626;11.176;2022-07-23T01:43:04;17.77;;;16.15;;
16401;SDS011;8310;44.626;11.176;2022-07-23T01:45:32;16.95;;;15.07;;
16401;SDS011;8310;44.626;11.176;2022-07-23T01:48:00;18.08;;;15.68;;
16401;SDS011;8310;44.626;11.176;2022-07-23T01:50:29;17.45;;;15.35;;
16401;SDS011;8310;44.626;11.176;2022-07-23T01:52:57;17.48;;;15.65;;
16401;SDS011;8310;44.626;11.176;2022-07-23T01:55:24;18.65;;;16.70;;
16401;SDS011;8310;44.626;11.176;2022-07-23T01:57:53;17.60;;;15.88;;
16401;SDS011;8310;44.626;11.176;2022-07-23T02:00:21;17.20;;;15.57;;
16401;SDS011;8310;44.626;11.176;2022-07-23T02:02:50;18.20;;;16.02;;
16401;SDS011;8310;44.626;11.176;2022-07-23T02:05:18;18.70;;;16.88;;
16401;SDS011;8310;44.626;11.176;2022-07-23T02:07:46;18.90;;;17.10;;
16401;SDS011;8310;44.626;11.176;2022-07-23T02:10:14;20.48;;;17.80;;
16401;SDS011;8310;44.626;11.176;2022-07-23T02:12:41;17.77;;;16.10;;
16401;SDS011;8310;44.626;11.176;2022-07-23T02:15:12;19.30;;;17.45;;
16401;SDS011;8310;44.626;11.176;2022-07-23T02:17:40;18.60;;;16.90;;
16401;SDS011;8310;44.626;11.176;2022-07-23T02:20:08;18.98;;;17.25;;
16401;SDS011;8310;44.626;11.176;2022-07-23T02:22:37;20.40;;;18.50;;
16401;SDS011;8310;44.626;11.176;2022-07-23T02:25:06;17.25;;;15.20;;
16401;SDS011;8310;44.626;11.176;2022-07-23T02:27:34;16.25;;;14.88;;
16401;SDS011;8310;44.626;11.176;2022-07-23T02:30:02;16.73;;;15.13;;
16401;SDS011;8310;44.626;11.176;2022-07-23T02:32:33;18.77;;;15.70;;
16401;SDS011;8310;44.626;11.176;2022-07-23T02:35:07;23.73;;;16.35;;
16401;SDS011;8310;44.626;11.176;2022-07-23T02:37:35;18.02;;;16.10;;
16401;SDS011;8310;44.626;11.176;2022-07-23T02:40:03;18.17;;;16.30;;
16401;SDS011;8310;44.626;11.176;2022-07-23T02:42:31;18.38;;;16.42;;
16401;SDS011;8310;44.626;11.176;2022-07-23T02:44:59;20.25;;;18.30;;
16401;SDS011;8310;44.626;11.176;2022-07-23T02:47:26;21.90;;;16.60;;
16401;SDS011;8310;44.626;11.176;2022-07-23T02:49:55;19.77;;;17.88;;
16401;SDS011;8310;44.626;11.176;2022-07-23T02:52:23;20.35;;;18.58;;
16401;SDS011;8310;44.626;11.176;2022-07-23T02:54:51;20.45;;;18.33;;
16401;SDS011;8310;44.626;11.176;2022-07-23T02:57:18;20.92;;;18.83;;
16401;SDS011;8310;44.626;11.176;2022-07-23T02:59:46;18.00;;;16.27;;
16401;SDS011;8310;44.626;11.176;2022-07-23T03:02:14;19.00;;;16.20;;
16401;SDS011;8310;44.626;11.176;2022-07-23T03:04:42;19.13;;;17.25;;
16401;SDS011;8310;44.626;11.176;2022-07-23T03:07:11;17.35;;;15.55;;
16401;SDS011;8310;44.626;11.176;2022-07-23T03:09:39;17.02;;;15.43;;
16401;SDS011;8310;44.626;11.176;2022-07-23T03:12:07;17.58;;;15.77;;
16401;SDS011;8310;44.626;11.176;2022-07-23T03:14:35;17.65;;;15.95;;
16401;SDS011;8310;44.626;11.176;2022-07-23T03:17:04;19.20;;;17.15;;
16401;SDS011;8310;44.626;11.176;2022-07-23T03:19:36;19.75;;;17.42;;
16401;SDS011;8310;44.626;11.176;2022-07-23T03:22:04;20.13;;;18.13;;
16401;SDS011;8310;44.626;11.176;2022-07-23T03:24:34;19.38;;;17.27;;
16401;SDS011;8310;44.626;11.176;2022-07-23T03:27:18;19.90;;;18.08;;
16401;SDS011;8310;44.626;11.176;2022-07-23T03:29:45;21.08;;;19.05;;
16401;SDS011;8310;44.626;11.176;2022-07-23T03:32:13;19.77;;;17.83;;
16401;SDS011;8310;44.626;11.176;2022-07-23T03:34:43;20.17;;;18.27;;
16401;SDS011;8310;44.626;11.176;2022-07-23T03:37:16;20.73;;;18.35;;
16401;SDS011;8310;44.626;11.176;2022-07-23T03:39:46;19.38;;;17.58;;
16401;SDS011;8310;44.626;11.176;2022-07-23T03:42:14;20.23;;;18.23;;
16401;SDS011;8310;44.626;11.176;2022-07-23T03:44:41;16.98;;;15.48;;
16401;SDS011;8310;44.626;11.176;2022-07-23T03:47:09;16.67;;;15.18;;
16401;SDS011;8310;44.626;11.176;2022-07-23T03:49:37;15.48;;;13.82;;
16401;SDS011;8310;44.626;11.176;2022-07-23T03:52:05;16.05;;;14.43;;
16401;SDS011;8310;44.626;11.176;2022-07-23T03:54:33;15.43;;;13.98;;
16401;SDS011;8310;44.626;11.176;2022-07-23T03:57:03;14.95;;;13.68;;
16401;SDS011;8310;44.626;11.176;2022-07-23T03:59:31;18.70;;;14.93;;
16401;SDS011;8310;44.626;11.176;2022-07-23T04:01:59;15.45;;;13.95;;
16401;SDS011;8310;44.626;11.176;2022-07-23T04:04:26;15.18;;;13.77;;
16401;SDS011;8310;44.626;11.176;2022-07-23T04:06:55;16.00;;;14.48;;
16401;SDS011;8310;44.626;11.176;2022-07-23T04:09:23;13.60;;;12.55;;
16401;SDS011;8310;44.626;11.176;2022-07-23T04:11:51;14.13;;;12.77;;
16401;SDS011;8310;44.626;11.176;2022-07-23T04:14:21;14.05;;;12.63;;
16401;SDS011;8310;44.626;11.176;2022-07-23T04:16:49;12.23;;;11.10;;
16401;SDS011;8310;44.626;11.176;2022-07-23T04:19:18;13.27;;;11.98;;
16401;SDS011;8310;44.626;11.176;2022-07-23T04:21:46;13.27;;;11.95;;
16401;SDS011;8310;44.626;11.176;2022-07-23T04:24:15;12.32;;;11.30;;
16401;SDS011;8310;44.626;11.176;2022-07-23T04:26:43;12.25;;;10.95;;
16401;SDS011;8310;44.626;11.176;2022-07-23T04:29:12;12.82;;;11.63;;
16401;SDS011;8310;44.626;11.176;2022-07-23T04:31:41;12.70;;;11.50;;
16401;SDS011;8310;44.626;11.176;2022-07-23T04:34:08;12.55;;;11.40;;
16401;SDS011;8310;44.626;11.176;2022-07-23T04:36:39;11.20;;;10.05;;
16401;SDS011;8310;44.626;11.176;2022-07-23T04:39:07;10.52;;;9.52;;
16401;SDS011;8310;44.626;11.176;2022-07-23T04:41:35;12.13;;;11.00;;
16401;SDS011;8310;44.626;11.176;2022-07-23T04:44:03;12.13;;;10.95;;
16401;SDS011;8310;44.626;11.176;2022-07-23T04:46:31;11.30;;;10.20;;
16401;SDS011;8310;44.626;11.176;2022-07-23T04:49:00;15.10;;;10.98;;
16401;SDS011;8310;44.626;11.176;2022-07-23T04:54:03;11.50;;;10.38;;
16401;SDS011;8310;44.626;11.176;2022-07-23T04:56:31;10.88;;;9.82;;
16401;SDS011;8310;44.626;11.176;2022-07-23T04:58:58;11.48;;;10.40;;
16401;SDS011;8310;44.626;11.176;2022-07-23T05:01:25;11.27;;;10.32;;
16401;SDS011;8310;44.626;11.176;2022-07-23T05:03:53;10.77;;;9.68;;
16401;SDS011;8310;44.626;11.176;2022-07-23T05:06:23;11.00;;;10.00;;
16401;SDS011;8310;44.626;11.176;2022-07-23T05:08:50;10.93;;;9.93;;
16401;SDS011;8310;44.626;11.176;2022-07-23T05:11:17;10.07;;;9.25;;
16401;SDS011;8310;44.626;11.176;2022-07-23T05:13:44;10.57;;;9.60;;
16401;SDS011;8310;44.626;11.176;2022-07-23T05:16:12;10.80;;;9.75;;
16401;SDS011;8310;44.626;11.176;2022-07-23T05:18:40;11.55;;;10.35;;
16401;SDS011;8310;44.626;11.176;2022-07-23T05:21:07;10.35;;;9.38;;
16401;SDS011;8310;44.626;11.176;2022-07-23T05:23:36;10.73;;;9.25;;
16401;SDS011;8310;44.626;11.176;2022-07-23T05:26:04;9.95;;;9.02;;
16401;SDS011;8310;44.626;11.176;2022-07-23T05:28:32;10.63;;;9.32;;
16401;SDS011;8310;44.626;11.176;2022-07-23T05:30:59;9.80;;;8.80;;
16401;SDS011;8310;44.626;11.176;2022-07-23T05:33:27;9.77;;;8.90;;
16401;SDS011;8310;44.626;11.176;2022-07-23T05:35:59;10.30;;;9.23;;
16401;SDS011;8310;44.626;11.176;2022-07-23T05:38:27;17.10;;;9.10;;
16401;SDS011;8310;44.626;11.176;2022-07-23T05:40:56;9.57;;;8.55;;
16401;SDS011;8310;44.626;11.176;2022-07-23T05:43:24;9.27;;;8.40;;
16401;SDS011;8310;44.626;11.176;2022-07-23T05:45:52;16.15;;;10.23;;
16401;SDS011;8310;44.626;11.176;2022-07-23T05:48:20;13.32;;;8.95;;
16401;SDS011;8310;44.626;11.176;2022-07-23T05:50:47;9.55;;;8.75;;
16401;SDS011;8310;44.626;11.176;2022-07-23T05:53:15;10.32;;;9.43;;
16401;SDS011;8310;44.626;11.176;2022-07-23T05:55:43;9.55;;;8.65;;
16401;SDS011;8310;44.626;11.176;2022-07-23T05:58:12;9.95;;;9.00;;
16401;SDS011;8310;44.626;11.176;2022-07-23T06:00:40;10.25;;;9.45;;
16401;SDS011;8310;44.626;11.176;2022-07-23T06:03:07;8.95;;;8.10;;
16401;SDS011;8310;44.626;11.176;2022-07-23T06:05:35;9.95;;;9.05;;
16401;SDS011;8310;44.626;11.176;2022-07-23T06:08:03;10.98;;;10.00;;
16401;SDS011;8310;44.626;11.176;2022-07-23T06:10:32;10.50;;;9.60;;
16401;SDS011;8310;44.626;11.176;2022-07-23T06:13:00;9.38;;;8.65;;
16401;SDS011;8310;44.626;11.176;2022-07-23T06:15:28;11.07;;;10.10;;
16401;SDS011;8310;44.626;11.176;2022-07-23T06:17:57;11.18;;;10.18;;
16401;SDS011;8310;44.626;11.176;2022-07-23T06:20:24;14.27;;;10.95;;
16401;SDS011;8310;44.626;11.176;2022-07-23T06:22:52;10.88;;;9.88;;
16401;SDS011;8310;44.626;11.176;2022-07-23T06:25:20;12.10;;;10.70;;
16401;SDS011;8310;44.626;11.176;2022-07-23T06:27:47;12.15;;;10.85;;
16401;SDS011;8310;44.626;11.176;2022-07-23T06:30:14;11.68;;;10.55;;
16401;SDS011;8310;44.626;11.176;2022-07-23T06:32:43;11.40;;;10.20;;
16401;SDS011;8310;44.626;11.176;2022-07-23T06:35:11;12.02;;;10.93;;
16401;SDS011;8310;44.626;11.176;2022-07-23T06:37:39;11.95;;;10.85;;
16401;SDS011;8310;44.626;11.176;2022-07-23T06:40:07;11.95;;;10.90;;
16401;SDS011;8310;44.626;11.176;2022-07-23T06:42:35;12.43;;;11.20;;
16401;SDS011;8310;44.626;11.176;2022-07-23T06:45:04;11.65;;;10.55;;
16401;SDS011;8310;44.626;11.176;2022-07-23T06:47:32;12.00;;;10.82;;
16401;SDS011;8310;44.626;11.176;2022-07-23T06:50:01;13.75;;;12.15;;
16401;SDS011;8310;44.626;11.176;2022-07-23T06:52:29;13.15;;;11.90;;
16401;SDS011;8310;44.626;11.176;2022-07-23T06:54:57;13.85;;;12.48;;
16401;SDS011;8310;44.626;11.176;2022-07-23T06:57:25;13.77;;;11.55;;
16401;SDS011;8310;44.626;11.176;2022-07-23T06:59:52;13.50;;;12.35;;
16401;SDS011;8310;44.626;11.176;2022-07-23T07:02:20;13.18;;;11.90;;
16401;SDS011;8310;44.626;11.176;2022-07-23T07:04:48;12.63;;;11.63;;
16401;SDS011;8310;44.626;11.176;2022-07-23T07:07:17;12.63;;;11.55;;
16401;SDS011;8310;44.626;11.176;2022-07-23T07:09:45;12.45;;;11.27;;
16401;SDS011;8310;44.626;11.176;2022-07-23T07:12:12;11.80;;;10.73;;
16401;SDS011;8310;44.626;11.176;2022-07-23T07:14:39;12.32;;;11.02;;
16401;SDS011;8310;44.626;11.176;2022-07-23T07:17:07;11.23;;;10.15;;
16401;SDS011;8310;44.626;11.176;2022-07-23T07:19:36;9.80;;;9.00;;
16401;SDS011;8310;44.626;11.176;2022-07-23T07:22:04;10.45;;;9.32;;
16401;SDS011;8310;44.626;11.176;2022-07-23T07:24:33;10.73;;;9.73;;
16401;SDS011;8310;44.626;11.176;2022-07-23T07:27:00;10.27;;;9.30;;
16401;SDS011;8310;44.626;11.176;2022-07-23T07:29:28;10.35;;;9.35;;
16401;SDS011;8310;44.626;11.176;2022-07-23T07:31:55;10.13;;;9.27;;
16401;SDS011;8310;44.626;11.176;2022-07-23T07:34:23;10.07;;;9.18;;
16401;SDS011;8310;44.626;11.176;2022-07-23T07:36:51;10.48;;;9.43;;
16401;SDS011;8310;44.626;11.176;2022-07-23T07:39:18;9.63;;;8.73;;
16401;SDS011;8310;44.626;11.176;2022-07-23T07:41:47;11.10;;;10.02;;
16401;SDS011;8310;44.626;11.176;2022-07-23T07:44:15;12.65;;;9.63;;
16401;SDS011;8310;44.626;11.176;2022-07-23T07:46:43;10.23;;;9.32;;
16401;SDS011;8310;44.626;11.176;2022-07-23T07:49:11;10.23;;;9.32;;
16401;SDS011;8310;44.626;11.176;2022-07-23T07:51:39;10.30;;;9.40;;
16401;SDS011;8310;44.626;11.176;2022-07-23T07:54:06;9.25;;;8.35;;
16401;SDS011;8310;44.626;11.176;2022-07-23T07:56:34;10.30;;;8.95;;
16401;SDS011;8310;44.626;11.176;2022-07-23T07:59:02;9.75;;;9.00;;
16401;SDS011;8310;44.626;11.176;2022-07-23T08:01:30;9.60;;;8.70;;
16401;SDS011;8310;44.626;11.176;2022-07-23T08:03:57;9.13;;;8.25;;
16401;SDS011;8310;44.626;11.176;2022-07-23T08:06:25;8.70;;;7.85;;
16401;SDS011;8310;44.626;11.176;2022-07-23T08:08:53;8.90;;;8.20;;
16401;SDS011;8310;44.626;11.176;2022-07-23T08:11:21;8.20;;;7.50;;
16401;SDS011;8310;44.626;11.176;2022-07-23T08:13:48;7.95;;;7.25;;
16401;SDS011;8310;44.626;11.176;2022-07-23T08:16:18;8.13;;;7.43;;
16401;SDS011;8310;44.626;11.176;2022-07-23T08:18:45;7.75;;;6.95;;
16401;SDS011;8310;44.626;11.176;2022-07-23T08:21:13;7.68;;;7.00;;
16401;SDS011;8310;44.626;11.176;2022-07-23T08:23:40;7.43;;;6.93;;
16401;SDS011;8310;44.626;11.176;2022-07-23T08:26:08;7.57;;;7.00;;
16401;SDS011;8310;44.626;11.176;2022-07-23T08:28:35;6.38;;;5.88;;
16401;SDS011;8310;44.626;11.176;2022-07-23T08:31:03;7.68;;;7.07;;
16401;SDS011;8310;44.626;11.176;2022-07-23T08:33:32;7.18;;;6.57;;
16401;SDS011;8310;44.626;11.176;2022-07-23T08:35:59;6.75;;;6.13;;
16401;SDS011;8310;44.626;11.176;2022-07-23T08:38:27;6.65;;;6.15;;
16401;SDS011;8310;44.626;11.176;2022-07-23T08:40:55;7.53;;;6.85;;
16401;SDS011;8310;44.626;11.176;2022-07-23T08:43:24;7.30;;;6.70;;
16401;SDS011;8310;44.626;11.176;2022-07-23T08:45:54;7.30;;;6.60;;
16401;SDS011;8310;44.626;11.176;2022-07-23T08:48:23;7.55;;;6.95;;
16401;SDS011;8310;44.626;11.176;2022-07-23T08:50:53;7.43;;;6.90;;
16401;SDS011;8310;44.626;11.176;2022-07-23T08:53:23;7.93;;;7.28;;
16401;SDS011;8310;44.626;11.176;2022-07-23T08:55:53;7.70;;;7.10;;
16401;SDS011;8310;44.626;11.176;2022-07-23T08:58:21;7.43;;;6.82;;
16401;SDS011;8310;44.626;11.176;2022-07-23T09:00:49;7.57;;;6.88;;
16401;SDS011;8310;44.626;11.176;2022-07-23T09:03:18;8.05;;;6.93;;
16401;SDS011;8310;44.626;11.176;2022-07-23T09:05:46;7.90;;;7.20;;
16401;SDS011;8310;44.626;11.176;2022-07-23T09:08:17;6.97;;;6.47;;
16401;SDS011;8310;44.626;11.176;2022-07-23T09:10:50;7.85;;;7.25;;
16401;SDS011;8310;44.626;11.176;2022-07-23T09:13:24;8.20;;;7.60;;
16401;SDS011;8310;44.626;11.176;2022-07-23T09:16:00;7.85;;;7.15;;
16401;SDS011;8310;44.626;11.176;2022-07-23T09:18:30;7.65;;;6.97;;
16401;SDS011;8310;44.626;11.176;2022-07-23T09:21:05;7.50;;;6.90;;
16401;SDS011;8310;44.626;11.176;2022-07-23T09:23:42;8.02;;;7.25;;
16401;SDS011;8310;44.626;11.176;2022-07-23T09:26:18;7.80;;;7.13;;
16401;SDS011;8310;44.626;11.176;2022-07-23T09:28:56;8.60;;;7.90;;
16401;SDS011;8310;44.626;11.176;2022-07-23T09:31:25;8.23;;;7.40;;
16401;SDS011;8310;44.626;11.176;2022-07-23T09:34:06;8.80;;;8.02;;
16401;SDS011;8310;44.626;11.176;2022-07-23T09:36:34;7.93;;;7.32;;
16401;SDS011;8310;44.626;11.176;2022-07-23T09:39:04;8.02;;;7.43;;
16401;SDS011;8310;44.626;11.176;2022-07-23T09:41:40;8.38;;;7.55;;
16401;SDS011;8310;44.626;11.176;2022-07-23T09:44:10;7.90;;;7.25;;
16401;SDS011;8310;44.626;11.176;2022-07-23T09:46:39;8.43;;;7.72;;
16401;SDS011;8310;44.626;11.176;2022-07-23T09:49:18;8.68;;;7.82;;
16401;SDS011;8310;44.626;11.176;2022-07-23T09:51:51;8.70;;;8.00;;
16401;SDS011;8310;44.626;11.176;2022-07-23T09:54:21;9.13;;;8.32;;
16401;SDS011;8310;44.626;11.176;2022-07-23T09:56:55;8.65;;;7.80;;
16401;SDS011;8310;44.626;11.176;2022-07-23T09:59:24;8.63;;;7.88;;
16401;SDS011;8310;44.626;11.176;2022-07-23T10:01:53;8.82;;;8.02;;
16401;SDS011;8310;44.626;11.176;2022-07-23T10:04:21;10.43;;;8.10;;
16401;SDS011;8310;44.626;11.176;2022-07-23T10:06:51;8.82;;;7.57;;
16401;SDS011;8310;44.626;11.176;2022-07-23T10:09:23;8.70;;;8.00;;
16401;SDS011;8310;44.626;11.176;2022-07-23T10:11:52;8.93;;;8.13;;
16401;SDS011;8310;44.626;11.176;2022-07-23T10:14:26;8.07;;;7.57;;
16401;SDS011;8310;44.626;11.176;2022-07-23T10:16:56;8.63;;;7.90;;
16401;SDS011;8310;44.626;11.176;2022-07-23T10:19:23;8.52;;;7.80;;
16401;SDS011;8310;44.626;11.176;2022-07-23T10:21:53;8.43;;;7.75;;
16401;SDS011;8310;44.626;11.176;2022-07-23T10:24:28;8.18;;;7.35;;
16401;SDS011;8310;44.626;11.176;2022-07-23T10:27:12;8.90;;;8.10;;
16401;SDS011;8310;44.626;11.176;2022-07-23T10:30:03;8.65;;;7.97;;
16401;SDS011;8310;44.626;11.176;2022-07-23T10:32:37;8.35;;;7.63;;
16401;SDS011;8310;44.626;11.176;2022-07-23T10:35:12;8.52;;;7.82;;
16401;SDS011;8310;44.626;11.176;2022-07-23T10:37:49;7.88;;;7.30;;
16401;SDS011;8310;44.626;11.176;2022-07-23T10:40:21;8.60;;;7.78;;
16401;SDS011;8310;44.626;11.176;2022-07-23T10:42:50;8.70;;;8.00;;
16401;SDS011;8310;44.626;11.176;2022-07-23T10:45:28;8.60;;;7.90;;
16401;SDS011;8310;44.626;11.176;2022-07-23T10:48:11;8.45;;;7.78;;
16401;SDS011;8310;44.626;11.176;2022-07-23T10:50:40;8.95;;;8.05;;
16401;SDS011;8310;44.626;11.176;2022-07-23T10:53:09;9.25;;;8.15;;
16401;SDS011;8310;44.626;11.176;2022-07-23T10:55:41;7.80;;;7.15;;
16401;SDS011;8310;44.626;11.176;2022-07-23T10:58:10;7.45;;;6.85;;
16401;SDS011;8310;44.626;11.176;2022-07-23T11:00:43;8.63;;;7.80;;
16401;SDS011;8310;44.626;11.176;2022-07-23T11:05:58;9.35;;;7.97;;
16401;SDS011;8310;44.626;11.176;2022-07-23T11:08:25;9.30;;;8.40;;
16401;SDS011;8310;44.626;11.176;2022-07-23T11:10:56;8.52;;;7.80;;
16401;SDS011;8310;44.626;11.176;2022-07-23T11:13:37;8.23;;;7.53;;
16401;SDS011;8310;44.626;11.176;2022-07-23T11:16:25;8.32;;;7.63;;
16401;SDS011;8310;44.626;11.176;2022-07-23T11:21:50;7.97;;;7.28;;
16401;SDS011;8310;44.626;11.176;2022-07-23T11:24:21;7.70;;;7.10;;
16401;SDS011;8310;44.626;11.176;2022-07-23T11:26:53;8.40;;;7.60;;
16401;SDS011;8310;44.626;11.176;2022-07-23T11:29:38;8.55;;;7.70;;
16401;SDS011;8310;44.626;11.176;2022-07-23T11:32:08;8.02;;;7.35;;
16401;SDS011;8310;44.626;11.176;2022-07-23T11:34:46;7.90;;;7.30;;
16401;SDS011;8310;44.626;11.176;2022-07-23T11:37:26;8.38;;;7.68;;
16401;SDS011;8310;44.626;11.176;2022-07-23T11:39:58;9.00;;;8.15;;
16401;SDS011;8310;44.626;11.176;2022-07-23T11:42:28;7.60;;;6.78;;
16401;SDS011;8310;44.626;11.176;2022-07-23T11:44:55;8.10;;;7.47;;
16401;SDS011;8310;44.626;11.176;2022-07-23T11:47:24;8.02;;;7.53;;
16401;SDS011;8310;44.626;11.176;2022-07-23T11:49:53;8.02;;;7.43;;
16401;SDS011;8310;44.626;11.176;2022-07-23T11:52:22;8.13;;;7.35;;
16401;SDS011;8310;44.626;11.176;2022-07-23T11:54:51;9.90;;;7.60;;
16401;SDS011;8310;44.626;11.176;2022-07-23T11:57:20;7.82;;;7.13;;
16401;SDS011;8310;44.626;11.176;2022-07-23T11:59:53;7.90;;;7.30;;
16401;SDS011;8310;44.626;11.176;2022-07-23T12:02:24;9.50;;;8.65;;
16401;SDS011;8310;44.626;11.176;2022-07-23T12:04:52;8.30;;;7.68;;
16401;SDS011;8310;44.626;11.176;2022-07-23T12:10:09;8.30;;;7.50;;
16401;SDS011;8310;44.626;11.176;2022-07-23T12:12:39;8.20;;;7.50;;
16401;SDS011;8310;44.626;11.176;2022-07-23T12:15:09;8.57;;;7.78;;
16401;SDS011;8310;44.626;11.176;2022-07-23T12:17:39;8.82;;;7.90;;
16401;SDS011;8310;44.626;11.176;2022-07-23T12:20:08;7.90;;;7.18;;
16401;SDS011;8310;44.626;11.176;2022-07-23T12:22:41;8.57;;;7.70;;
16401;SDS011;8310;44.626;11.176;2022-07-23T12:25:10;8.10;;;7.50;;
16401;SDS011;8310;44.626;11.176;2022-07-23T12:27:39;8.38;;;7.78;;
16401;SDS011;8310;44.626;11.176;2022-07-23T12:30:19;8.77;;;7.90;;
16401;SDS011;8310;44.626;11.176;2022-07-23T12:32:49;8.55;;;7.78;;
16401;SDS011;8310;44.626;11.176;2022-07-23T12:35:17;8.20;;;7.60;;
16401;SDS011;8310;44.626;11.176;2022-07-23T12:37:51;8.82;;;7.60;;
16401;SDS011;8310;44.626;11.176;2022-07-23T12:40:21;8.45;;;7.85;;
16401;SDS011;8310;44.626;11.176;2022-07-23T12:42:51;8.18;;;7.50;;
16401;SDS011;8310;44.626;11.176;2022-07-23T12:45:22;8.23;;;7.50;;
16401;SDS011;8310;44.626;11.176;2022-07-23T12:47:51;7.80;;;7.15;;
16401;SDS011;8310;44.626;11.176;2022-07-23T12:50:30;10.75;;;8.13;;
16401;SDS011;8310;44.626;11.176;2022-07-23T12:53:14;7.75;;;6.97;;
16401;SDS011;8310;44.626;11.176;2022-07-23T12:55:42;9.00;;;8.18;;
16401;SDS011;8310;44.626;11.176;2022-07-23T12:58:13;7.30;;;6.70;;
16401;SDS011;8310;44.626;11.176;2022-07-23T13:00:55;7.88;;;7.38;;
16401;SDS011;8310;44.626;11.176;2022-07-23T13:03:25;8.48;;;7.85;;
16401;SDS011;8310;44.626;11.176;2022-07-23T13:05:54;7.57;;;7.07;;
16401;SDS011;8310;44.626;11.176;2022-07-23T13:08:22;8.45;;;7.35;;
16401;SDS011;8310;44.626;11.176;2022-07-23T13:10:50;8.10;;;7.50;;
16401;SDS011;8310;44.626;11.176;2022-07-23T13:13:20;8.40;;;7.65;;
16401;SDS011;8310;44.626;11.176;2022-07-23T13:15:49;8.13;;;7.43;;
16401;SDS011;8310;44.626;11.176;2022-07-23T13:18:19;7.82;;;7.22;;
16401;SDS011;8310;44.626;11.176;2022-07-23T13:20:47;8.55;;;7.80;;
16401;SDS011;8310;44.626;11.176;2022-07-23T13:23:16;7.65;;;7.03;;
16401;SDS011;8310;44.626;11.176;2022-07-23T13:25:44;8.43;;;7.72;;
16401;SDS011;8310;44.626;11.176;2022-07-23T13:28:13;7.93;;;7.35;;
16401;SDS011;8310;44.626;11.176;2022-07-23T13:30:42;7.88;;;7.28;;
16401;SDS011;8310;44.626;11.176;2022-07-23T13:33:10;8.55;;;7.85;;
16401;SDS011;8310;44.626;11.176;2022-07-23T13:35:39;7.38;;;6.70;;
16401;SDS011;8310;44.626;11.176;2022-07-23T13:38:07;7.35;;;6.75;;
16401;SDS011;8310;44.626;11.176;2022-07-23T13:40:35;8.15;;;7.53;;
16401;SDS011;8310;44.626;11.176;2022-07-23T13:43:04;7.43;;;6.68;;
16401;SDS011;8310;44.626;11.176;2022-07-23T13:45:32;7.55;;;6.85;;
16401;SDS011;8310;44.626;11.176;2022-07-23T13:48:00;7.93;;;7.25;;
16401;SDS011;8310;44.626;11.176;2022-07-23T13:50:29;8.68;;;7.90;;
16401;SDS011;8310;44.626;11.176;2022-07-23T13:52:59;7.93;;;7.22;;
16401;SDS011;8310;44.626;11.176;2022-07-23T13:55:27;8.07;;;7.13;;
16401;SDS011;8310;44.626;11.176;2022-07-23T13:57:55;7.53;;;6.80;;
16401;SDS011;8310;44.626;11.176;2022-07-23T14:00:23;7.95;;;7.20;;
16401;SDS011;8310;44.626;11.176;2022-07-23T14:02:51;7.95;;;7.30;;
16401;SDS011;8310;44.626;11.176;2022-07-23T14:05:19;7.93;;;7.22;;
16401;SDS011;8310;44.626;11.176;2022-07-23T14:07:46;8.43;;;7.63;;
16401;SDS011;8310;44.626;11.176;2022-07-23T14:10:16;8.48;;;7.85;;
16401;SDS011;8310;44.626;11.176;2022-07-23T14:12:44;7.22;;;6.82;;
16401;SDS011;8310;44.626;11.176;2022-07-23T14:15:12;8.38;;;7.68;;
16401;SDS011;8310;44.626;11.176;2022-07-23T14:17:41;8.32;;;7.50;;
16401;SDS011;8310;44.626;11.176;2022-07-23T14:20:10;8.20;;;7.40;;
16401;SDS011;8310;44.626;11.176;2022-07-23T14:22:39;7.90;;;7.25;;
16401;SDS011;8310;44.626;11.176;2022-07-23T14:25:08;8.43;;;7.57;;
16401;SDS011;8310;44.626;11.176;2022-07-23T14:27:38;8.10;;;7.40;;
16401;SDS011;8310;44.626;11.176;2022-07-23T14:30:07;8.10;;;7.40;;
16401;SDS011;8310;44.626;11.176;2022-07-23T14:32:40;8.05;;;7.32;;
16401;SDS011;8310;44.626;11.176;2022-07-23T14:35:08;7.75;;;7.25;;
16401;SDS011;8310;44.626;11.176;2022-07-23T14:37:35;8.27;;;7.57;;
16401;SDS011;8310;44.626;11.176;2022-07-23T14:40:05;8.90;;;7.78;;
16401;SDS011;8310;44.626;11.176;2022-07-23T14:42:33;7.88;;;7.28;;
16401;SDS011;8310;44.626;11.176;2022-07-23T14:45:02;8.52;;;7.78;;
16401;SDS011;8310;44.626;11.176;2022-07-23T14:47:31;8.07;;;7.40;;
16401;SDS011;8310;44.626;11.176;2022-07-23T14:49:59;8.18;;;7.25;;
16401;SDS011;8310;44.626;11.176;2022-07-23T14:52:27;10.38;;;8.15;;
16401;SDS011;8310;44.626;11.176;2022-07-23T14:54:54;7.72;;;7.13;;
16401;SDS011;8310;44.626;11.176;2022-07-23T14:57:22;8.73;;;7.80;;
16401;SDS011;8310;44.626;11.176;2022-07-23T14:59:49;8.60;;;7.90;;